Time;durP1;ratioP1;P1;durP2;ratioP2;P2;SDS_P1;SDS_P2;PMS_P1;PMS_P2;Temp;Humidity;BMP_temperature;BMP_pressure;BME280_temperature;BME280_humidity;BME280_pressure;Samples;Min_cycle;Max_cycle;Signal;HPM_P1;HPM_P2
2023/03/22 00:02:03;;;;;;;21.33;12.82;;;;;;;;;;5076104;28;20082;-81
2023/03/22 00:04:29;;;;;;;21.10;11.95;;;;;;;;;;5074608;28;20045;-81
2023/03/22 00:06:55;;;;;;;;;;;;;;;;;;5038799;28;20028;-81
2023/03/22 00:09:20;;;;;;;20.15;11.35;;;;;;;;;;5074642;28;19912;-81
2023/03/22 00:11:49;;;;;;;18.77;11.35;;;;;;;;;;5064319;28;20028;-81
2023/03/22 00:14:16;;;;;;;17.50;9.90;;;;;;;;;;5049953;28;20063;-81
2023/03/22 00:16:41;;;;;;;19.83;12.25;;;;;;;;;;5060643;28;20016;-81
2023/03/22 00:19:07;;;;;;;16.98;10.60;;;;;;;;;;5066510;28;20108;-81
2023/03/22 00:21:32;;;;;;;17.60;11.27;;;;;;;;;;5053878;28;20384;-81
2023/03/22 00:23:57;;;;;;;;;;;;;;;;;;5054502;28;20040;-81
2023/03/22 00:26:23;;;;;;;20.48;11.52;;;;;;;;;;5071882;28;19909;-81
2023/03/22 00:28:48;;;;;;;;;;;;;;;;;;5072243;28;20119;-80
2023/03/22 00:31:14;;;;;;;19.52;12.05;;;;;;;;;;5054582;28;19908;-81
2023/03/22 00:33:39;;;;;;;20.88;12.32;;;;;;;;;;5056934;28;20040;-81
2023/03/22 00:36:06;;;;;;;19.27;11.45;;;;;;;;;;5063381;28;20025;-81
2023/03/22 00:38:37;;;;;;;17.52;10.57;;;;;;;;;;5060072;28;20136;-81
2023/03/22 00:41:04;;;;;;;18.75;11.70;;;;;;;;;;5053573;28;20052;-81
2023/03/22 00:43:30;;;;;;;20.20;11.77;;;;;;;;;;5053344;28;20407;-81
2023/03/22 00:45:55;;;;;;;19.95;12.05;;;;;;;;;;5069165;28;20107;-80
2023/03/22 00:48:21;;;;;;;18.95;12.02;;;;;;;;;;5069615;28;20541;-80
2023/03/22 00:50:46;;;;;;;;;;;;;;;;;;5040240;28;20032;-80
2023/03/22 00:53:12;;;;;;;20.02;11.80;;;;;;;;;;5070208;28;19909;-82
2023/03/22 00:55:37;;;;;;;;;;;;;;;;;;5071524;28;20031;-80
2023/03/22 00:58:04;;;;;;;19.63;11.55;;;;;;;;;;5069574;28;20338;-82
2023/03/22 01:00:30;;;;;;;18.45;12.60;;;;;;;;;;5071284;28;20414;-81
2023/03/22 01:02:58;;;;;;;;;;;;;;;;;;5070123;28;20028;-80
2023/03/22 01:05:24;;;;;;;19.83;12.00;;;;;;;;;;5069346;28;19970;-79
2023/03/22 01:07:50;;;;;;;20.10;13.05;;;;;;;;;;5077295;28;20028;-79
2023/03/22 01:10:15;;;;;;;20.00;12.57;;;;;;;;;;5064019;28;20028;-80
2023/03/22 01:12:41;;;;;;;;;;;;;;;;;;5053859;28;20036;-80
2023/03/22 01:15:07;;;;;;;19.58;12.63;;;;;;;;;;5053774;28;19912;-81
2023/03/22 01:17:32;;;;;;;21.38;13.02;;;;;;;;;;5036174;28;20170;-81
2023/03/22 01:19:58;;;;;;;18.27;11.63;;;;;;;;;;5053851;28;20041;-82
2023/03/22 01:22:23;;;;;;;18.92;11.98;;;;;;;;;;5053404;28;20496;-82
2023/03/22 01:24:49;;;;;;;17.75;11.65;;;;;;;;;;5037275;28;20102;-80
2023/03/22 01:27:15;;;;;;;20.05;12.50;;;;;;;;;;5053748;28;20021;-80
2023/03/22 01:29:40;;;;;;;21.15;12.48;;;;;;;;;;5020962;28;20040;-80
2023/03/22 01:32:06;;;;;;;20.50;12.77;;;;;;;;;;5056667;28;20020;-80
2023/03/22 01:34:32;;;;;;;19.75;12.57;;;;;;;;;;5057795;28;20125;-80
2023/03/22 01:36:58;;;;;;;23.20;12.60;;;;;;;;;;5057662;28;20843;-80
2023/03/22 01:39:25;;;;;;;;;;;;;;;;;;5037965;28;20025;-80
2023/03/22 01:41:54;;;;;;;17.35;10.52;;;;;;;;;;5054030;28;19947;-80
2023/03/22 01:44:20;;;;;;;17.73;10.40;;;;;;;;;;5024347;28;20033;-80
2023/03/22 01:46:46;;;;;;;21.83;12.45;;;;;;;;;;5040518;28;20025;-80
2023/03/22 01:49:31;;;;;;;19.02;11.43;;;;;;;;;;5074911;28;20043;-80
2023/03/22 01:51:59;;;;;;;20.67;12.68;;;;;;;;;;5055329;28;20519;-80
2023/03/22 01:54:44;;;;;;;21.25;12.13;;;;;;;;;;5073158;28;20502;-79
2023/03/22 01:57:24;;;;;;;19.40;11.88;;;;;;;;;;5058083;28;20040;-80
2023/03/22 01:59:50;;;;;;;18.75;12.25;;;;;;;;;;5071983;28;20032;-80
2023/03/22 02:02:29;;;;;;;20.65;12.27;;;;;;;;;;5075188;28;20047;-80
2023/03/22 02:05:04;;;;;;;20.48;12.05;;;;;;;;;;5073055;28;20113;-80
2023/03/22 02:07:30;;;;;;;;;;;;;;;;;;5072846;28;20059;-80
2023/03/22 02:09:56;;;;;;;17.58;11.32;;;;;;;;;;5069988;28;19908;-80
2023/03/22 02:12:37;;;;;;;22.17;12.40;;;;;;;;;;5056963;28;20037;-80
2023/03/22 02:15:24;;;;;;;20.30;12.77;;;;;;;;;;5072303;28;20483;-81
2023/03/22 02:18:28;;;;;;;20.67;11.52;;;;;;;;;;5064333;28;20063;-81
2023/03/22 02:21:02;;;;;;;19.50;12.25;;;;;;;;;;5072337;28;20407;-81
2023/03/22 02:23:27;;;;;;;21.42;11.82;;;;;;;;;;5055991;28;20039;-80
2023/03/22 02:26:11;;;;;;;20.30;11.45;;;;;;;;;;5072291;28;20020;-81
2023/03/22 02:28:37;;;;;;;21.60;12.15;;;;;;;;;;5039433;28;20033;-81
2023/03/22 02:31:08;;;;;;;25.60;13.25;;;;;;;;;;5056199;28;20103;-81
2023/03/22 02:33:50;;;;;;;22.40;12.93;;;;;;;;;;5055842;28;20562;-80
2023/03/22 02:36:18;;;;;;;21.60;12.10;;;;;;;;;;5050627;28;20082;-80
2023/03/22 02:39:03;;;;;;;24.95;13.65;;;;;;;;;;5071658;28;20032;-81
2023/03/22 02:41:47;;;;;;;21.90;12.55;;;;;;;;;;5071569;28;20056;-80
2023/03/22 02:44:24;;;;;;;19.52;11.35;;;;;;;;;;5068100;28;20040;-80
2023/03/22 02:46:54;;;;;;;22.33;12.50;;;;;;;;;;5039053;28;20055;-81
2023/03/22 02:49:22;;;;;;;26.60;12.45;;;;;;;;;;5055692;28;20066;-80
2023/03/22 02:51:50;;;;;;;21.70;12.35;;;;;;;;;;5073199;28;20036;-81
2023/03/22 02:54:17;;;;;;;20.25;11.73;;;;;;;;;;5039054;28;20036;-81
2023/03/22 02:56:43;;;;;;;24.35;12.65;;;;;;;;;;5038175;28;20059;-81
2023/03/22 02:59:08;;;;;;;20.75;12.07;;;;;;;;;;5074219;28;20077;-81
2023/03/22 03:01:37;;;;;;;24.08;12.13;;;;;;;;;;5056256;28;20534;-81
2023/03/22 03:04:03;;;;;;;20.40;11.65;;;;;;;;;;5055190;28;20032;-81
2023/03/22 03:06:31;;;;;;;20.38;12.27;;;;;;;;;;5058855;28;20368;-81
2023/03/22 03:08:57;;;;;;;20.00;10.27;;;;;;;;;;5045316;28;20024;-80
2023/03/22 03:11:22;;;;;;;22.65;11.80;;;;;;;;;;5064243;28;20075;-81
2023/03/22 03:13:48;;;;;;;19.67;10.85;;;;;;;;;;5057068;28;20089;-81
2023/03/22 03:16:16;;;;;;;22.92;13.32;;;;;;;;;;5057432;28;20115;-81
2023/03/22 03:18:45;;;;;;;20.27;11.48;;;;;;;;;;5055984;28;20020;-81
2023/03/22 03:21:31;;;;;;;22.42;12.50;;;;;;;;;;5073125;28;20493;-81
2023/03/22 03:24:10;;;;;;;17.63;10.50;;;;;;;;;;5041419;28;20128;-81
2023/03/22 03:26:42;;;;;;;20.20;11.90;;;;;;;;;;5053281;28;20028;-81
2023/03/22 03:29:14;;;;;;;20.58;10.30;;;;;;;;;;5035720;28;20060;-79
2023/03/22 03:31:44;;;;;;;17.95;10.98;;;;;;;;;;5038671;28;20039;-82
2023/03/22 03:34:22;;;;;;;19.70;11.40;;;;;;;;;;5035189;28;20055;-81
2023/03/22 03:36:50;;;;;;;20.17;11.30;;;;;;;;;;5043824;28;20514;-80
2023/03/22 03:39:15;;;;;;;20.30;12.07;;;;;;;;;;5037620;28;20439;-80
2023/03/22 03:41:43;;;;;;;17.00;10.80;;;;;;;;;;5055021;28;20072;-80
2023/03/22 03:44:08;;;;;;;20.05;11.27;;;;;;;;;;5021131;28;20069;-80
2023/03/22 03:46:35;;;;;;;19.27;11.10;;;;;;;;;;5034943;28;20040;-80
2023/03/22 03:49:00;;;;;;;22.52;11.27;;;;;;;;;;5050331;28;20021;-81
2023/03/22 03:51:26;;;;;;;21.20;12.52;;;;;;;;;;5071011;28;20069;-80
2023/03/22 03:53:51;;;;;;;17.80;10.95;;;;;;;;;;5053873;28;20030;-80
2023/03/22 03:56:18;;;;;;;18.65;11.18;;;;;;;;;;5054318;28;20040;-80
2023/03/22 03:58:46;;;;;;;21.52;11.63;;;;;;;;;;5054401;28;20046;-80
2023/03/22 04:01:11;;;;;;;18.35;10.73;;;;;;;;;;5054462;28;20567;-79
2023/03/22 04:03:49;;;;;;;22.67;12.43;;;;;;;;;;5071442;28;20024;-80
2023/03/22 04:06:33;;;;;;;23.08;12.73;;;;;;;;;;5071819;28;20522;-80
2023/03/22 04:09:04;;;;;;;19.45;10.70;;;;;;;;;;5038153;28;20028;-80
2023/03/22 04:11:36;;;;;;;18.73;11.43;;;;;;;;;;5053805;28;20127;-81
2023/03/22 04:14:02;;;;;;;21.08;11.40;;;;;;;;;;5058107;28;20033;-81
2023/03/22 04:16:28;;;;;;;19.00;11.18;;;;;;;;;;5060030;28;20023;-80
2023/03/22 04:18:53;;;;;;;21.90;12.23;;;;;;;;;;5060578;28;20067;-79
2023/03/22 04:21:20;;;;;;;23.02;12.80;;;;;;;;;;5064799;28;20047;-79
2023/03/22 04:23:56;;;;;;;20.73;11.95;;;;;;;;;;5037828;28;20036;-79
2023/03/22 04:26:22;;;;;;;22.10;12.80;;;;;;;;;;5053474;28;20143;-79
2023/03/22 04:29:10;;;;;;;20.73;11.45;;;;;;;;;;5052250;28;20021;-80
2023/03/22 04:31:41;;;;;;;19.70;11.95;;;;;;;;;;5051451;28;20029;-80
2023/03/22 04:34:31;;;;;;;18.27;10.75;;;;;;;;;;5063065;28;20119;-81
2023/03/22 04:37:02;;;;;;;20.90;12.82;;;;;;;;;;5039544;28;20036;-80
2023/03/22 04:39:45;;;;;;;21.00;12.13;;;;;;;;;;5055767;28;20032;-79
2023/03/22 04:42:20;;;;;;;22.00;11.20;;;;;;;;;;5057895;28;20056;-80
2023/03/22 04:44:49;;;;;;;20.75;11.65;;;;;;;;;;5055554;28;20024;-80
2023/03/22 04:47:15;;;;;;;17.50;11.02;;;;;;;;;;5056271;28;20020;-82
2023/03/22 04:49:41;;;;;;;21.08;12.00;;;;;;;;;;5056223;28;20041;-82
2023/03/22 04:52:06;;;;;;;22.23;12.50;;;;;;;;;;5023298;28;20074;-82
2023/03/22 04:54:34;;;;;;;22.08;12.55;;;;;;;;;;5056185;28;20053;-80
2023/03/22 04:57:00;;;;;;;18.90;11.65;;;;;;;;;;5051880;28;20388;-79
2023/03/22 04:59:29;;;;;;;24.20;12.57;;;;;;;;;;5057576;28;20029;-79
2023/03/22 05:01:56;;;;;;;21.98;12.27;;;;;;;;;;5057443;28;20440;-81
2023/03/22 05:04:26;;;;;;;19.85;11.90;;;;;;;;;;5041959;28;20041;-80
2023/03/22 05:06:58;;;;;;;19.45;10.93;;;;;;;;;;5052548;28;20822;-79
2023/03/22 05:09:32;;;;;;;19.23;11.65;;;;;;;;;;5052600;28;20035;-80
2023/03/22 05:11:58;;;;;;;19.20;11.15;;;;;;;;;;5052937;28;20085;-79
2023/03/22 05:14:43;;;;;;;19.30;12.23;;;;;;;;;;5069176;28;20781;-77
2023/03/22 05:17:11;;;;;;;19.88;11.45;;;;;;;;;;5056491;28;20143;-79
2023/03/22 05:19:38;;;;;;;19.15;11.70;;;;;;;;;;5034324;28;20332;-77
2023/03/22 05:22:03;;;;;;;17.73;10.73;;;;;;;;;;5066604;28;20039;-78
2023/03/22 05:24:44;;;;;;;21.02;11.75;;;;;;;;;;5065229;28;20032;-77
2023/03/22 05:27:15;;;;;;;18.85;11.38;;;;;;;;;;5066904;28;20036;-79
2023/03/22 05:29:43;;;;;;;17.02;10.80;;;;;;;;;;5048283;28;20035;-78
2023/03/22 05:32:17;;;;;;;17.63;10.20;;;;;;;;;;5054886;28;20101;-79
2023/03/22 05:34:47;;;;;;;16.75;10.27;;;;;;;;;;5067590;28;20025;-78
2023/03/22 05:37:24;;;;;;;14.90;8.52;;;;;;;;;;5062289;28;20407;-77
2023/03/22 05:39:52;;;;;;;14.95;8.70;;;;;;;;;;5043040;28;20546;-78
2023/03/22 05:42:22;;;;;;;15.60;8.80;;;;;;;;;;5050022;28;20530;-79
2023/03/22 05:44:47;;;;;;;14.50;8.27;;;;;;;;;;5069910;28;20040;-79
2023/03/22 05:47:13;;;;;;;15.73;9.70;;;;;;;;;;5050250;28;20025;-77
2023/03/22 05:49:57;;;;;;;15.35;9.48;;;;;;;;;;5070158;28;20125;-78
2023/03/22 05:52:23;;;;;;;17.48;9.23;;;;;;;;;;5063435;28;20032;-78
2023/03/22 05:55:07;;;;;;;16.23;8.88;;;;;;;;;;5066764;28;20454;-78
2023/03/22 05:57:33;;;;;;;14.85;8.80;;;;;;;;;;5066070;28;20070;-78
2023/03/22 06:00:00;;;;;;;14.35;8.68;;;;;;;;;;5035258;28;20031;-79
2023/03/22 06:02:38;;;;;;;12.98;8.15;;;;;;;;;;5034336;28;20593;-79
2023/03/22 06:05:04;;;;;;;13.27;7.35;;;;;;;;;;5063026;28;20025;-79
2023/03/22 06:07:30;;;;;;;12.60;8.30;;;;;;;;;;5065554;28;20037;-79
2023/03/22 06:10:07;;;;;;;12.38;7.25;;;;;;;;;;5036830;28;20033;-79
2023/03/22 06:12:32;;;;;;;;;;;;;;;;;;5032923;28;20124;-79
2023/03/22 06:15:05;;;;;;;14.10;7.68;;;;;;;;;;5048812;28;20375;-78
2023/03/22 06:17:36;;;;;;;13.15;8.00;;;;;;;;;;5053535;28;20048;-78
2023/03/22 06:20:10;;;;;;;11.05;6.85;;;;;;;;;;5055325;28;20043;-78
2023/03/22 06:22:38;;;;;;;13.10;7.95;;;;;;;;;;5048408;28;20033;-79
2023/03/22 06:25:04;;;;;;;13.20;7.63;;;;;;;;;;5057876;28;20047;-79
2023/03/22 06:27:38;;;;;;;10.75;6.63;;;;;;;;;;5071965;28;20037;-78
2023/03/22 06:30:04;;;;;;;11.43;7.55;;;;;;;;;;5071247;28;20032;-77
2023/03/22 06:32:35;;;;;;;12.23;7.15;;;;;;;;;;5055591;28;20036;-78
2023/03/22 06:35:01;;;;;;;14.13;7.80;;;;;;;;;;5071396;28;20491;-78
2023/03/22 06:37:27;;;;;;;;;;;;;;;;;;5042044;28;20086;-78
2023/03/22 06:39:53;;;;;;;12.60;7.55;;;;;;;;;;5055219;28;20006;-78
2023/03/22 06:42:22;;;;;;;14.93;8.00;;;;;;;;;;5039196;28;20047;-78
2023/03/22 06:44:58;;;;;;;14.27;8.25;;;;;;;;;;5055626;28;20025;-78
2023/03/22 06:47:27;;;;;;;13.07;7.68;;;;;;;;;;5038450;28;20402;-78
2023/03/22 06:50:16;;;;;;;13.48;7.80;;;;;;;;;;5032000;28;20032;-78
2023/03/22 06:53:14;;;;;;;13.80;7.43;;;;;;;;;;5058960;28;20036;-78
2023/03/22 06:55:39;;;;;;;10.10;6.82;;;;;;;;;;5053813;28;20037;-78
2023/03/22 06:58:18;;;;;;;10.02;6.60;;;;;;;;;;5056249;28;20039;-78
2023/03/22 07:00:43;;;;;;;10.82;6.78;;;;;;;;;;5036390;28;20041;-78
2023/03/22 07:03:09;;;;;;;10.25;6.32;;;;;;;;;;5054163;28;20265;-78
2023/03/22 07:05:42;;;;;;;8.57;4.47;;;;;;;;;;5051658;28;20074;-78
2023/03/22 07:08:07;;;;;;;8.05;4.78;;;;;;;;;;5040852;28;20028;-79
2023/03/22 07:10:36;;;;;;;9.65;4.75;;;;;;;;;;5038782;28;20020;-78
2023/03/22 07:13:02;;;;;;;8.43;4.03;;;;;;;;;;5072235;28;20491;-78
2023/03/22 07:15:29;;;;;;;8.88;4.93;;;;;;;;;;5022155;28;20024;-79
2023/03/22 07:18:11;;;;;;;7.70;3.55;;;;;;;;;;5040275;28;20039;-80
2023/03/22 07:20:39;;;;;;;6.25;3.78;;;;;;;;;;5054721;28;20029;-80
2023/03/22 07:23:05;;;;;;;4.78;2.35;;;;;;;;;;5036906;28;20484;-77
2023/03/22 07:25:40;;;;;;;6.03;2.65;;;;;;;;;;5055093;28;20036;-79
2023/03/22 07:28:18;;;;;;;4.13;1.90;;;;;;;;;;5055264;28;20024;-78
2023/03/22 07:30:44;;;;;;;3.95;2.15;;;;;;;;;;5055349;28;20070;-78
2023/03/22 07:33:10;;;;;;;4.78;1.90;;;;;;;;;;5055588;28;20035;-80
2023/03/22 07:35:36;;;;;;;;;;;;;;;;;;5055244;28;20064;-79
2023/03/22 07:38:03;;;;;;;3.70;1.70;;;;;;;;;;5055968;28;19915;-80
2023/03/22 07:40:30;;;;;;;3.42;1.70;;;;;;;;;;5071601;28;20053;-80
2023/03/22 07:42:57;;;;;;;2.83;1.67;;;;;;;;;;5055580;28;20043;-80
2023/03/22 07:45:39;;;;;;;3.80;1.88;;;;;;;;;;5041539;28;20068;-79
2023/03/22 07:48:27;;;;;;;3.38;1.98;;;;;;;;;;5060730;28;20036;-79
2023/03/22 07:51:11;;;;;;;3.55;1.45;;;;;;;;;;5058127;28;20086;-79
2023/03/22 07:53:37;;;;;;;2.58;1.10;;;;;;;;;;5055072;28;20044;-81
2023/03/22 07:56:03;;;;;;;1.88;1.40;;;;;;;;;;5071699;28;20376;-79
2023/03/22 07:58:29;;;;;;;2.97;1.10;;;;;;;;;;5054816;28;20427;-78
2023/03/22 08:00:57;;;;;;;1.60;0.90;;;;;;;;;;5037900;28;20024;-79
2023/03/22 08:03:43;;;;;;;2.58;1.35;;;;;;;;;;5039506;28;20044;-80
2023/03/22 08:06:31;;;;;;;1.98;1.15;;;;;;;;;;5041156;28;20444;-80
2023/03/22 08:08:57;;;;;;;2.92;1.20;;;;;;;;;;5042339;28;20029;-79
2023/03/22 08:11:22;;;;;;;2.92;1.52;;;;;;;;;;5069626;28;20085;-80
2023/03/22 08:13:48;;;;;;;3.45;1.75;;;;;;;;;;5069342;28;20558;-78
2023/03/22 08:16:13;;;;;;;;;;;;;;;;;;5070164;28;20043;-78
2023/03/22 08:18:39;;;;;;;4.70;2.13;;;;;;;;;;5055719;28;20085;-79
2023/03/22 08:21:05;;;;;;;4.88;2.40;;;;;;;;;;5069414;28;20491;-81
2023/03/22 08:23:33;;;;;;;5.07;2.05;;;;;;;;;;5067975;28;20127;-78
2023/03/22 08:26:19;;;;;;;3.92;2.10;;;;;;;;;;5063606;28;20021;-80
2023/03/22 08:28:45;;;;;;;;;;;;;;;;;;5053490;28;20089;-79
2023/03/22 08:31:14;;;;;;;4.35;2.00;;;;;;;;;;5070869;28;19912;-80
2023/03/22 08:33:41;;;;;;;4.57;2.13;;;;;;;;;;5052176;28;20078;-79
2023/03/22 08:36:07;;;;;;;3.30;2.15;;;;;;;;;;5035317;28;20024;-77
2023/03/22 08:38:38;;;;;;;4.05;2.55;;;;;;;;;;5068790;28;20496;-78
2023/03/22 08:41:05;;;;;;;4.13;1.92;;;;;;;;;;5067349;28;20518;-83
2023/03/22 08:43:31;;;;;;;4.75;2.55;;;;;;;;;;5071106;28;20079;-78
2023/03/22 08:45:56;;;;;;;4.03;2.35;;;;;;;;;;5070723;28;20482;-78
2023/03/22 08:48:23;;;;;;;3.70;2.00;;;;;;;;;;5069255;28;20051;-79
2023/03/22 08:51:05;;;;;;;3.90;2.10;;;;;;;;;;5068807;28;20462;-78
2023/03/22 08:53:51;;;;;;;4.20;2.00;;;;;;;;;;5068415;28;20089;-79
2023/03/22 08:56:40;;;;;;;3.00;1.80;;;;;;;;;;5055583;28;20051;-79
2023/03/22 08:59:26;;;;;;;4.30;2.03;;;;;;;;;;5058520;28;20115;-79
2023/03/22 09:02:13;;;;;;;;;;;;;;;;;;5054907;28;20043;-79
2023/03/22 09:04:39;;;;;;;3.13;2.00;;;;;;;;;;5068834;28;19912;-79
2023/03/22 09:07:04;;;;;;;4.18;1.92;;;;;;;;;;5054927;28;20115;-79
2023/03/22 09:09:30;;;;;;;2.65;1.30;;;;;;;;;;5043325;28;20083;-79
2023/03/22 09:11:56;;;;;;;;;;;;;;;;;;5070941;28;20035;-78
2023/03/22 09:14:22;;;;;;;3.40;1.33;;;;;;;;;;5068673;28;19912;-78
2023/03/22 09:16:48;;;;;;;2.33;1.30;;;;;;;;;;5068315;28;20039;-78
2023/03/22 09:19:14;;;;;;;;;;;;;;;;;;5056076;28;20492;-78
2023/03/22 09:21:40;;;;;;;4.40;1.60;;;;;;;;;;5054461;28;19934;-78
2023/03/22 09:24:12;;;;;;;2.95;1.63;;;;;;;;;;5068993;28;20060;-78
2023/03/22 09:26:42;;;;;;;3.42;1.52;;;;;;;;;;5052055;28;20032;-79
2023/03/22 09:29:08;;;;;;;2.47;1.55;;;;;;;;;;5052256;28;20040;-79
2023/03/22 09:31:34;;;;;;;4.82;1.25;;;;;;;;;;5051859;28;20028;-80
2023/03/22 09:34:13;;;;;;;2.22;1.23;;;;;;;;;;5068287;28;20109;-79
2023/03/22 09:36:39;;;;;;;;;;;;;;;;;;5052614;28;20033;-80
2023/03/22 09:39:06;;;;;;;4.97;1.30;;;;;;;;;;5054281;28;20375;-79
2023/03/22 09:41:43;;;;;;;1.85;1.33;;;;;;;;;;5052477;28;20125;-80
2023/03/22 09:44:13;;;;;;;2.03;1.02;;;;;;;;;;5039148;28;20502;-79
2023/03/22 09:46:40;;;;;;;3.08;1.65;;;;;;;;;;5052311;28;20032;-80
2023/03/22 09:49:16;;;;;;;1.92;1.10;;;;;;;;;;5035423;28;20053;-79
2023/03/22 09:51:48;;;;;;;2.33;1.10;;;;;;;;;;5052741;28;20032;-79
2023/03/22 09:54:17;;;;;;;1.83;1.10;;;;;;;;;;5054111;28;20037;-79
2023/03/22 09:56:43;;;;;;;5.15;1.55;;;;;;;;;;5074267;28;20447;-79
2023/03/22 09:59:15;;;;;;;2.08;1.20;;;;;;;;;;5086646;28;20395;-79
2023/03/22 10:01:44;;;;;;;2.30;1.13;;;;;;;;;;5072056;28;20193;-80
2023/03/22 10:04:12;;;;;;;2.25;1.40;;;;;;;;;;5071426;28;20033;-80
2023/03/22 10:06:38;;;;;;;3.67;1.10;;;;;;;;;;5071576;28;20036;-80
2023/03/22 10:09:04;;;;;;;;;;;;;;;;;;5058557;28;20025;-79
2023/03/22 10:11:30;;;;;;;1.85;1.10;;;;;;;;;;5055407;28;19917;-80
2023/03/22 10:14:00;;;;;;;1.80;1.10;;;;;;;;;;5073755;28;20035;-80
2023/03/22 10:16:27;;;;;;;1.52;1.10;;;;;;;;;;5071850;28;20042;-80
2023/03/22 10:18:54;;;;;;;3.30;1.13;;;;;;;;;;5055894;28;20120;-79
2023/03/22 10:21:19;;;;;;;2.92;1.27;;;;;;;;;;5038986;28;20048;-79
2023/03/22 10:24:03;;;;;;;3.67;1.17;;;;;;;;;;5073251;28;20032;-79
2023/03/22 10:26:31;;;;;;;3.58;1.13;;;;;;;;;;5055737;28;20033;-79
2023/03/22 10:29:02;;;;;;;2.08;1.20;;;;;;;;;;5071953;28;20024;-79
2023/03/22 10:31:28;;;;;;;1.90;1.27;;;;;;;;;;5056336;28;20037;-78
2023/03/22 10:34:06;;;;;;;2.63;1.40;;;;;;;;;;5056203;28;20035;-78
2023/03/22 10:36:33;;;;;;;2.20;1.30;;;;;;;;;;5056487;28;20029;-78
2023/03/22 10:39:22;;;;;;;2.03;1.25;;;;;;;;;;5055593;28;20035;-79
2023/03/22 10:41:48;;;;;;;2.53;1.38;;;;;;;;;;5038374;28;20418;-80
2023/03/22 10:44:14;;;;;;;3.20;1.70;;;;;;;;;;5039561;28;20039;-80
2023/03/22 10:46:40;;;;;;;2.40;1.40;;;;;;;;;;5073099;28;20487;-80
2023/03/22 10:49:06;;;;;;;2.35;1.50;;;;;;;;;;5055841;28;20020;-78
2023/03/22 10:51:34;;;;;;;3.15;1.60;;;;;;;;;;5072785;28;20505;-78
2023/03/22 10:54:00;;;;;;;3.45;1.20;;;;;;;;;;5039518;28;20481;-80
2023/03/22 10:56:25;;;;;;;3.00;1.50;;;;;;;;;;5073387;28;20032;-79
2023/03/22 10:58:51;;;;;;;3.75;1.42;;;;;;;;;;5072308;28;20029;-79
2023/03/22 11:01:43;;;;;;;2.95;1.30;;;;;;;;;;5056017;28;20047;-79
2023/03/22 11:04:09;;;;;;;2.78;1.70;;;;;;;;;;5067875;28;20523;-79
2023/03/22 11:06:35;;;;;;;;;;;;;;;;;;5039530;28;20024;-79
2023/03/22 11:09:10;;;;;;;2.88;1.60;;;;;;;;;;5075412;28;19912;-80
2023/03/22 11:11:37;;;;;;;3.30;1.80;;;;;;;;;;5072335;28;20093;-79
2023/03/22 11:14:09;;;;;;;3.10;1.50;;;;;;;;;;5042402;28;20060;-81
2023/03/22 11:16:50;;;;;;;3.70;1.67;;;;;;;;;;5072313;28;20089;-79
2023/03/22 11:19:26;;;;;;;2.38;1.48;;;;;;;;;;5072169;28;20119;-80
2023/03/22 11:21:52;;;;;;;2.80;1.70;;;;;;;;;;5068611;28;20411;-78
2023/03/22 11:24:17;;;;;;;2.90;1.52;;;;;;;;;;5037746;28;20039;-80
2023/03/22 11:26:43;;;;;;;2.65;1.60;;;;;;;;;;5069526;28;20037;-79
2023/03/22 11:29:12;;;;;;;3.45;1.70;;;;;;;;;;5070889;28;20024;-80
2023/03/22 11:31:54;;;;;;;2.40;1.50;;;;;;;;;;5072047;28;20369;-80
2023/03/22 11:34:20;;;;;;;2.47;1.30;;;;;;;;;;5070217;28;20045;-80
2023/03/22 11:36:51;;;;;;;2.50;1.40;;;;;;;;;;5066436;28;20085;-77
2023/03/22 11:39:17;;;;;;;3.22;1.35;;;;;;;;;;5071602;28;20044;-80
2023/03/22 11:41:42;;;;;;;2.42;1.70;;;;;;;;;;5071457;28;20131;-80
2023/03/22 11:44:08;;;;;;;;;;;;;;;;;;5054203;28;20415;-79
2023/03/22 11:46:33;;;;;;;2.63;1.50;;;;;;;;;;5071645;28;20436;-80
2023/03/22 11:49:10;;;;;;;2.63;1.80;;;;;;;;;;5070234;28;20037;-79
2023/03/22 11:51:35;;;;;;;;;;;;;;;;;;5047645;28;20032;-79
2023/03/22 11:54:12;;;;;;;2.83;1.90;;;;;;;;;;5072110;28;19908;-79
2023/03/22 11:56:42;;;;;;;5.38;2.00;;;;;;;;;;5034146;28;20132;-79
2023/03/22 11:59:10;;;;;;;4.38;1.90;;;;;;;;;;5069506;28;20020;-79
2023/03/22 12:01:40;;;;;;;5.20;2.00;;;;;;;;;;5054378;28;20051;-80
2023/03/22 12:04:07;;;;;;;5.35;1.92;;;;;;;;;;5054014;28;20033;-79
2023/03/22 12:06:34;;;;;;;3.13;1.98;;;;;;;;;;5053942;28;20032;-79
2023/03/22 12:09:03;;;;;;;3.88;1.65;;;;;;;;;;5059432;28;20029;-79
2023/03/22 12:11:43;;;;;;;2.55;1.95;;;;;;;;;;5071365;28;20028;-78
2023/03/22 12:14:11;;;;;;;2.75;1.70;;;;;;;;;;5053876;28;20496;-80
2023/03/22 12:16:40;;;;;;;2.53;1.48;;;;;;;;;;5070753;28;20048;-79
2023/03/22 12:19:08;;;;;;;2.67;1.70;;;;;;;;;;5069780;28;20044;-79
2023/03/22 12:21:33;;;;;;;2.72;1.48;;;;;;;;;;5040073;28;20107;-80
2023/03/22 12:24:00;;;;;;;3.35;1.73;;;;;;;;;;5046629;28;20140;-78
2023/03/22 12:26:25;;;;;;;4.47;1.70;;;;;;;;;;5052845;28;20426;-80
2023/03/22 12:28:53;;;;;;;3.08;1.70;;;;;;;;;;5069576;28;20079;-80
2023/03/22 12:31:20;;;;;;;2.45;1.65;;;;;;;;;;5068975;28;20073;-79
2023/03/22 12:33:46;;;;;;;5.97;1.92;;;;;;;;;;5069233;28;20082;-79
2023/03/22 12:36:15;;;;;;;3.63;1.95;;;;;;;;;;5068878;28;20028;-79
2023/03/22 12:38:47;;;;;;;5.10;2.00;;;;;;;;;;5071007;28;20134;-79
2023/03/22 12:41:17;;;;;;;2.97;1.90;;;;;;;;;;5067664;28;20484;-78
2023/03/22 12:43:47;;;;;;;2.95;1.98;;;;;;;;;;5071341;28;20044;-79
2023/03/22 12:46:16;;;;;;;4.07;2.25;;;;;;;;;;5067256;28;20048;-80
2023/03/22 12:48:42;;;;;;;3.05;1.92;;;;;;;;;;5070792;28;20033;-80
2023/03/22 12:51:09;;;;;;;3.00;1.95;;;;;;;;;;5051306;28;20108;-80
2023/03/22 12:53:41;;;;;;;4.43;1.92;;;;;;;;;;5051669;28;20028;-78
2023/03/22 12:56:10;;;;;;;3.42;2.10;;;;;;;;;;5056903;28;20495;-79
2023/03/22 12:58:36;;;;;;;3.40;2.17;;;;;;;;;;5051184;28;20033;-79
2023/03/22 13:01:16;;;;;;;3.25;2.10;;;;;;;;;;5067894;28;20414;-79
2023/03/22 13:03:45;;;;;;;3.03;2.10;;;;;;;;;;5070332;28;20037;-77
2023/03/22 13:06:31;;;;;;;3.10;2.33;;;;;;;;;;5070711;28;20111;-79
2023/03/22 13:09:15;;;;;;;4.43;2.60;;;;;;;;;;5061339;28;20043;-78
2023/03/22 13:11:45;;;;;;;3.75;2.17;;;;;;;;;;5057348;28;20064;-78
2023/03/22 13:14:11;;;;;;;4.80;2.15;;;;;;;;;;5069344;28;20032;-80
2023/03/22 13:16:36;;;;;;;;;;;;;;;;;;5057318;28;20740;-80
2023/03/22 13:19:02;;;;;;;3.45;2.08;;;;;;;;;;5070397;28;19922;-79
2023/03/22 13:21:28;;;;;;;3.58;2.20;;;;;;;;;;5035597;28;20040;-79
2023/03/22 13:23:54;;;;;;;2.78;2.10;;;;;;;;;;5070232;28;20380;-79
2023/03/22 13:26:19;;;;;;;2.97;2.00;;;;;;;;;;5068855;28;20036;-80
2023/03/22 13:28:58;;;;;;;3.83;2.20;;;;;;;;;;5057095;28;20032;-79
2023/03/22 13:31:37;;;;;;;3.33;2.20;;;;;;;;;;5057143;28;20487;-79
2023/03/22 13:34:03;;;;;;;4.55;2.45;;;;;;;;;;5036876;28;20044;-79
2023/03/22 13:36:29;;;;;;;4.15;2.42;;;;;;;;;;5072232;28;20020;-79
2023/03/22 13:38:55;;;;;;;3.80;2.40;;;;;;;;;;5056735;28;20032;-79
2023/03/22 13:41:20;;;;;;;;;;;;;;;;;;5036975;28;20055;-78
2023/03/22 13:43:48;;;;;;;3.67;2.42;;;;;;;;;;5066723;28;20029;-78
2023/03/22 13:46:20;;;;;;;3.25;2.28;;;;;;;;;;5057103;28;20035;-78
2023/03/22 13:48:45;;;;;;;3.97;2.55;;;;;;;;;;5056940;28;20082;-80
2023/03/22 13:51:12;;;;;;;3.30;2.50;;;;;;;;;;5073883;28;20024;-79
2023/03/22 13:53:39;;;;;;;2.97;2.30;;;;;;;;;;5056878;28;20123;-77
2023/03/22 13:56:05;;;;;;;3.20;2.22;;;;;;;;;;5057155;28;20395;-79
2023/03/22 13:58:35;;;;;;;3.75;2.42;;;;;;;;;;5056919;28;20071;-79
2023/03/22 14:01:05;;;;;;;3.50;2.30;;;;;;;;;;5044497;28;20043;-79
2023/03/22 14:03:57;;;;;;;3.58;2.55;;;;;;;;;;5060298;28;20090;-79
2023/03/22 14:06:23;;;;;;;4.93;2.58;;;;;;;;;;5056984;28;20028;-79
2023/03/22 14:08:50;;;;;;;4.20;2.50;;;;;;;;;;5075980;28;20124;-78
2023/03/22 14:11:20;;;;;;;4.70;2.40;;;;;;;;;;5055747;28;20032;-79
2023/03/22 14:13:47;;;;;;;5.78;2.85;;;;;;;;;;5055228;28;20046;-80
2023/03/22 14:16:21;;;;;;;4.15;2.42;;;;;;;;;;5064536;28;20040;-79
2023/03/22 14:18:47;;;;;;;3.97;2.53;;;;;;;;;;5049086;28;20520;-79
2023/03/22 14:21:33;;;;;;;3.83;2.35;;;;;;;;;;5054834;28;20116;-79
2023/03/22 14:23:59;;;;;;;4.35;2.80;;;;;;;;;;5062686;28;20052;-78
2023/03/22 14:26:25;;;;;;;6.72;2.72;;;;;;;;;;5071766;28;20031;-78
2023/03/22 14:28:54;;;;;;;5.53;3.00;;;;;;;;;;5071879;28;20141;-79
2023/03/22 14:31:24;;;;;;;5.88;2.92;;;;;;;;;;5073041;28;20028;-78
2023/03/22 14:33:50;;;;;;;3.40;2.42;;;;;;;;;;5071232;28;20109;-78
2023/03/22 14:36:15;;;;;;;3.22;2.35;;;;;;;;;;5053704;28;20395;-78
2023/03/22 14:38:44;;;;;;;3.20;2.45;;;;;;;;;;5071907;28;20036;-79
2023/03/22 14:41:17;;;;;;;5.03;2.50;;;;;;;;;;5070693;28;20080;-79
2023/03/22 14:43:44;;;;;;;3.78;2.70;;;;;;;;;;5062304;28;20053;-79
2023/03/22 14:46:16;;;;;;;4.25;2.65;;;;;;;;;;5072196;28;20038;-80
2023/03/22 14:48:41;;;;;;;4.53;2.40;;;;;;;;;;5068420;28;20040;-80
2023/03/22 14:51:18;;;;;;;5.22;2.83;;;;;;;;;;5071185;28;20035;-78
2023/03/22 14:53:44;;;;;;;5.18;2.85;;;;;;;;;;5064126;28;20058;-79
2023/03/22 14:56:09;;;;;;;4.97;2.85;;;;;;;;;;5052868;28;20028;-78
2023/03/22 14:58:35;;;;;;;4.40;2.70;;;;;;;;;;5086150;28;20055;-78